Central Sonoma County Latest

29 Stations

15 Minute Data | America/Los_Angeles
as of 1/28/22 6:23 PM PST
Station Date Time Temp (°F) RH (%) Dew Pt (°F) Wind Spd (mph) Wind Dir (°) Wind Gust (mph) Latest Rain (In) Daily Rain (In) Daily Min Temp (°F) Daily Max Temp (°F)
Healdsburg-South (Sodini) 1/28/22 1815 46.7   6.2 82   19 41.6   0.8 0.0 N | 0 0.0   3.1 0.00 0.00 29.9   0.8 66.4   2.1
Windsor-NW (Ranch 8) 1/28/22 1815 52.9   4.9 74   18 44.9   2.7 0.9 NW | 313 2.0   2.7 0.00 0.00 34.8   0.7 69.6   1.2
Windsor-East (Ranch 16) 1/28/22 1815 47.2   3.5 82   11 42.0   0.2 0.0 N | 0 0.0   4.1 0.00 0.00 30.5   0.4 67.6   0.1
Mark West-North (Ranch 14) 1/28/22 1815 50.7   4.9 73   18 42.5   2.6 0.8 NE | 51 1.8   0.5 0.00 0.00 31.5   0.5 66.4   3.3
Windsor-SE (Silk Rd) 1/28/22 1815 46.7   5.7 83   17 41.7   0.5 0.4 SSE | 159 2.0   2.0 0.00 0.00 29.5   0.3 66.6   0.7
Fulton-NW (Ranch 5) 1/28/22 1815 49.5   4.5 77   16 42.6   1.8 1.0 NNE | 22 1.6   0.8 0.00 0.00 29.8   0.2 63.9   1.5
Windsor-South (Laughlin Rd) 1/28/22 1815 52.6   3.5 - - - - - 0.00 0.00 31.2   0.7 64.6   2.4
Fulton-SE (Barnes Rd) 1/28/22 1815 50.0   5.7 74   14 42.2   0.1 1.2 ENE | 73 2.8   0.4 0.00 0.00 30.9   0.4 65.3   0.5
Fulton-SW (Ranch 21) 1/28/22 1815 52.1   1.4 63   2 39.7   0.3 0.7 SE | 128 2.0   0.3 0.00 0.00 30.4   0.0 64.5   2.0
Santa Rosa-NW (Goldfields) 1/28/22 1815 50.6   3.4 67   8 40.1   0.0 0.2 SE | 127 0.9   1.1 0.00 0.00 31.0   0.3 69.9   1.8
NW Santa Rosa (Piner Road) 1/28/22 1815 49.3   6.9 77   21 42.3   1.8 1.0 NE | 42 1.6   0.1 0.00 0.00 30.1   1.1 64.2   1.3
River Rd South (Denner Ranch) 1/28/22 1815 50.9   2.9 69   10 41.0   1.1 2.2 NNW | 342 3.9   0.7 - - 30.2   0.4 65.3   1.2
West Santa Rosa (Hawk's Roost) 1/28/22 1815 50.2   3.9 69   11 40.6   0.6 0.1 ENE | 67 1.5   0.5 0.00 0.00 30.2   0.6 66.6   0.9
Guerneville Rd (Prokopakis) 1/28/22 1815 49.7   7.7 79   28 43.6   4.0 - - - 0.00 0.00 30.8   0.4 67.0   1.0
Guerneville Rd West (Balletto) 1/28/22 1815 49.2   6.6 79   21 42.9   1.6 0.6 SSE | 160 1.9   1.8 0.00 0.00 30.6   0.5 64.1   1.8
Guerneville Rd East (Rich Ranch) 1/28/22 1815 50.7   4.2 70   13 41.2   1.3 - - - - - 30.1   0.1 65.5   0.6
Occidental Rd (Sebastopol) 1/28/22 1815 50.0   1.0 100   0 50.0   1.0 0.9 SSW | 204 1.5   2.6 0.00 0.00 - 84.8   3.3
Lower Westside Rd (Ranch 12) 1/28/22 1815 47.9   0.7 82   6 42.6   1.1 0.0 SSW | 192 0.8   0.2 0.00 0.00 31.0   0.1 67.8   3.8
Guerneville (Laughlin Rd) 1/28/22 1815 43.3   0.2 93   4 41.4   1.1 0.2 NNW | 337 1.0   1.0 0.00 0.00 29.6   3.9 66.2   0.5
Korbel (Winery) 1/28/22 1815 46.7   0.0 89   3 43.8   0.8 0.0 N | 0 0.0   0.0 0.00 0.00 32.3   2.4 66.3   2.3
Forestville (Shone Farms) 1/28/22 1815 50.3   6.9 74   16 42.2   0.0 1.4 SW | 216 2.6   0.8 0.00 0.00 32.8   1.8 65.3   4.0
Forestville-NE (Ranch 30) 1/28/22 1815 48.6   1.1 82   3 43.2   0.0 0.2 W | 274 1.1   0.3 0.00 0.00 30.7   1.7 65.4   6.4
Green Valley Vineyard 1/28/22 1815 48.1   2.1 81   8 42.7   0.5 4.0 WNW | 283 5.9   0.0 0.00 0.00 34.1   1.6 64.8   3.1
Graton-West (Dutton Ranch) 1/28/22 1815 46.5   1.4 100   0 46.5   1.4 0.3 S | 188 1.2   1.5 0.00 0.00 30.2   1.7 65.9   3.2
Graton-South (Mill Station Rd) 1/28/22 1815 47.7   2.1 80   0 42.0   2.0 0.8 SSW | 192 2.8   0.9 0.00 0.00 28.8   1.9 64.9   2.4
Occidental (Horseshoe Bend) 1/28/22 1815 52.3   4.0 61   11 39.2   1.1 - - - - - 42.8   2.7 64.0   2.3
Sexton Valley (Jacqueline's Blk) 1/28/22 1815 44.5   1.3 87   1 40.9   1.6 0.7 WSW | 252 1.7   0.4 0.00 0.00 28.8   1.1 64.0   4.5
Sebastopol Hills (Burnside Rd) 1/28/22 1815 53.0   2.2 56   1 37.8   2.4 0.0 N | 0 0.0   2.3 0.00 0.00 38.8   0.0 63.0   2.3
Seaview/Fort Ross (Hirsch) 1/28/22 1815 55.5   2.3 39   22 30.9   8.9 5.1 SE | 127 7.4   6.9 0.00 0.00 51.5   2.5 64.4   0.8
Max     55.5 100 50.0 5.1 - 7.4 0.00 0.00 51.5 84.8
Avg     49.4 77 41.9 0.9 - 1.9 0.00 - - -
Min     43.3 39 30.9 0.0 - 0.0 0.00 0.00 28.8 63.0